Time;durP1;ratioP1;P1;durP2;ratioP2;P2;SDS_P1;SDS_P2;PMS_P1;PMS_P2;Temp;Humidity;BMP_temperature;BMP_pressure;BME280_temperature;BME280_humidity;BME280_pressure;Samples;Min_cycle;Max_cycle;Signal;HPM_P1;HPM_P2
2022/05/28 00:00:53;;;;;;;3.33;1.90;;;;;;;16.59;100.00;96569.53;5001359;28;20217;-84
2022/05/28 00:03:20;;;;;;;2.03;1.70;;;;;;;16.62;100.00;96573.69;5004367;28;20210;-84
2022/05/28 00:05:47;;;;;;;2.33;1.80;;;;;;;16.60;100.00;96576.63;5000078;28;20215;-85
2022/05/28 00:08:14;;;;;;;2.03;1.63;;;;;;;16.57;100.00;96576.34;5003623;28;20301;-84
2022/05/28 00:10:43;;;;;;;2.10;1.90;;;;;;;16.54;100.00;96564.06;5012940;28;20204;-84
2022/05/28 00:13:11;;;;;;;2.43;1.80;;;;;;;16.47;100.00;96568.94;5016304;28;20261;-85
2022/05/28 00:15:40;;;;;;;2.10;1.90;;;;;;;16.45;100.00;96568.38;5001628;28;20300;-86
2022/05/28 00:18:07;;;;;;;2.70;1.70;;;;;;;16.37;100.00;96557.94;5021064;28;20207;-84
2022/05/28 00:20:34;;;;;;;1.97;1.67;;;;;;;16.37;100.00;96565.31;5002255;28;20211;-84
2022/05/28 00:23:02;;;;;;;2.27;1.80;;;;;;;16.24;100.00;96572.84;5007019;28;20210;-84
2022/05/28 00:25:30;;;;;;;1.90;1.80;;;;;;;16.18;100.00;96552.06;5009563;28;20226;-85
2022/05/28 00:27:57;;;;;;;2.73;1.90;;;;;;;16.25;100.00;96568.19;5024739;28;20202;-85
2022/05/28 00:30:25;;;;;;;3.90;2.07;;;;;;;16.32;100.00;96557.94;5026578;28;20211;-84
2022/05/28 00:32:52;;;;;;;2.73;1.70;;;;;;;16.35;100.00;96562.84;5027976;28;20229;-85
2022/05/28 00:35:21;;;;;;;3.70;2.00;;;;;;;16.32;100.00;96555.19;5023777;28;20195;-84
2022/05/28 00:37:49;;;;;;;1.97;1.73;;;;;;;16.38;100.00;96556.03;5012674;28;20210;-85
2022/05/28 00:40:20;;;;;;;2.47;1.73;;;;;;;16.29;100.00;96550.25;5006921;28;20207;-84
2022/05/28 00:42:48;;;;;;;2.43;1.60;;;;;;;16.37;100.00;96557.13;5008343;28;20210;-85
2022/05/28 00:45:15;;;;;;;2.90;1.60;;;;;;;16.30;100.00;96548.38;5003035;28;20321;-85
2022/05/28 00:47:49;;;;;;;1.77;1.57;;;;;;;16.29;100.00;96542.09;5031782;28;20203;-85
2022/05/28 00:50:17;;;;;;;3.00;1.60;;;;;;;16.26;100.00;96546.16;5021863;28;20265;-84
2022/05/28 00:52:45;;;;;;;1.63;1.53;;;;;;;16.37;100.00;96543.50;5005372;28;20206;-85
2022/05/28 00:55:13;;;;;;;1.40;1.30;;;;;;;16.27;100.00;96544.25;5010346;28;20248;-84
2022/05/28 00:57:41;;;;;;;2.60;1.57;;;;;;;16.25;100.00;96549.13;5011519;28;20230;-84
2022/05/28 01:00:10;;;;;;;3.40;1.60;;;;;;;16.26;100.00;96545.31;5010032;28;20216;-85
2022/05/28 01:02:44;;;;;;;2.17;1.60;;;;;;;16.25;100.00;96546.41;5005205;28;20200;-85
2022/05/28 01:05:22;;;;;;;1.70;1.60;;;;;;;16.09;100.00;96528.31;5005328;28;20226;-84
2022/05/28 01:08:00;;;;;;;2.73;1.40;;;;;;;16.12;100.00;96552.31;5025861;28;20214;-85
2022/05/28 01:10:35;;;;;;;2.37;1.80;;;;;;;16.06;100.00;96545.19;5009527;28;20213;-85
2022/05/28 01:13:09;;;;;;;1.87;1.50;;;;;;;15.97;100.00;96538.56;5007137;28;20383;-84
2022/05/28 01:15:42;;;;;;;2.07;1.50;;;;;;;15.89;100.00;96526.25;5002836;28;20230;-85
2022/05/28 01:18:14;;;;;;;1.80;1.50;;;;;;;15.88;100.00;96524.59;5006366;28;20211;-84
2022/05/28 01:20:48;;;;;;;2.40;1.37;;;;;;;15.86;100.00;96530.31;5025220;28;20211;-84
2022/05/28 01:23:32;;;;;;;1.70;1.57;;;;;;;15.88;100.00;96530.06;5009476;28;20203;-84
2022/05/28 01:26:10;;;;;;;2.87;1.50;;;;;;;15.88;100.00;96532.78;5027587;28;20213;-85
2022/05/28 01:28:41;;;;;;;2.87;1.60;;;;;;;15.89;100.00;96529.81;5009920;28;20202;-84
2022/05/28 01:31:11;;;;;;;3.00;1.47;;;;;;;15.88;100.00;96514.53;5008521;28;20202;-84
2022/05/28 01:33:42;;;;;;;2.27;1.40;;;;;;;15.85;100.00;96520.50;5008714;28;20232;-84
2022/05/28 01:36:12;;;;;;;1.50;1.40;;;;;;;15.87;100.00;96512.91;5019954;28;20293;-84
2022/05/28 01:38:41;;;;;;;1.70;1.60;;;;;;;15.70;100.00;96512.19;5026673;28;20202;-84
2022/05/28 01:41:09;;;;;;;1.60;1.50;;;;;;;15.69;100.00;96507.81;5008242;28;20212;-85
2022/05/28 01:43:41;;;;;;;3.10;1.50;;;;;;;15.66;100.00;96502.88;5021830;28;20231;-84
2022/05/28 01:46:12;;;;;;;1.93;1.53;;;;;;;15.66;100.00;96505.63;5002824;28;20222;-84
2022/05/28 01:48:42;;;;;;;1.57;1.47;;;;;;;15.70;100.00;96500.47;5006289;28;20202;-86
2022/05/28 01:51:12;;;;;;;1.77;1.60;;;;;;;15.74;100.00;96496.16;5009470;28;20238;-85
2022/05/28 01:56:27;;;;;;;2.57;1.43;;;;;;;15.66;100.00;96499.34;5020733;28;20214;-84
2022/05/28 01:58:55;;;;;;;3.43;1.60;;;;;;;15.67;100.00;96496.38;5005299;28;20203;-85
2022/05/28 02:01:23;;;;;;;1.60;1.50;;;;;;;15.69;100.00;96493.41;5001278;28;20235;-85
2022/05/28 02:03:53;;;;;;;1.67;1.57;;;;;;;15.65;100.00;96487.63;5005910;28;20207;-85
2022/05/28 02:06:20;;;;;;;1.87;1.50;;;;;;;15.63;100.00;96489.81;5008096;28;20218;-84
2022/05/28 02:08:49;;;;;;;1.90;1.50;;;;;;;15.60;100.00;96482.16;5024062;28;20203;-85
2022/05/28 02:11:21;;;;;;;3.43;1.60;;;;;;;15.52;100.00;96483.41;5001205;28;20414;-85
2022/05/28 02:14:12;;;;;;;2.00;1.47;;;;;;;15.53;100.00;96484.25;5022531;28;20234;-85
2022/05/28 02:16:49;;;;;;;2.03;1.77;;;;;;;15.52;100.00;96474.44;5005043;28;20231;-84
2022/05/28 02:19:24;;;;;;;1.90;1.60;;;;;;;15.45;100.00;96471.09;5004771;28;20242;-84
2022/05/28 02:22:02;;;;;;;1.60;1.50;;;;;;;15.55;100.00;96470.41;5008824;28;20211;-85
2022/05/28 02:24:35;;;;;;;1.83;1.67;;;;;;;15.49;100.00;96466.78;5024927;28;20202;-85
2022/05/28 02:27:06;;;;;;;3.33;1.80;;;;;;;15.51;100.00;96461.91;5007807;28;20222;-85
2022/05/28 02:29:36;;;;;;;1.50;1.40;;;;;;;15.58;100.00;96461.72;5012204;28;20218;-85
2022/05/28 02:32:13;;;;;;;2.87;1.63;;;;;;;15.49;100.00;96459.44;5009094;28;20213;-85
2022/05/28 02:34:41;;;;;;;1.90;1.60;;;;;;;15.52;100.00;96458.09;5001810;28;20203;-84
2022/05/28 02:37:08;;;;;;;1.63;1.53;;;;;;;15.46;100.00;96461.88;5002900;28;20292;-85
2022/05/28 02:39:35;;;;;;;1.90;1.43;;;;;;;15.47;100.00;96452.63;5007140;28;20199;-85
2022/05/28 02:42:02;;;;;;;2.23;1.70;;;;;;;15.41;100.00;96450.91;5002347;28;20213;-85
2022/05/28 02:44:29;;;;;;;3.77;1.53;;;;;;;15.40;100.00;96457.44;4997860;28;20303;-85
2022/05/28 02:46:57;;;;;;;2.30;1.57;;;;;;;15.41;100.00;96459.91;5007472;28;20314;-85
2022/05/28 02:49:25;;;;;;;3.40;1.80;;;;;;;15.41;100.00;96445.47;5007486;28;20298;-84
2022/05/28 02:51:53;;;;;;;2.97;1.40;;;;;;;15.43;100.00;96448.75;5009008;28;20298;-85
2022/05/28 02:54:23;;;;;;;2.30;1.60;;;;;;;15.45;100.00;96457.50;4997744;28;20215;-85
2022/05/28 02:56:50;;;;;;;2.47;1.60;;;;;;;15.42;100.00;96445.22;5010312;28;20213;-84
2022/05/28 02:59:17;;;;;;;3.60;1.70;;;;;;;15.37;100.00;96441.66;5009133;28;20207;-85
2022/05/28 03:01:44;;;;;;;2.57;1.67;;;;;;;15.37;100.00;96447.09;5004030;28;20203;-85
2022/05/28 03:04:12;;;;;;;3.07;1.60;;;;;;;15.30;100.00;96447.31;5000162;28;20238;-85
2022/05/28 03:06:40;;;;;;;2.00;1.83;;;;;;;15.26;100.00;96450.78;5008727;28;20221;-84
2022/05/28 03:09:08;;;;;;;3.90;1.80;;;;;;;15.22;100.00;96449.66;4997827;28;20297;-85
2022/05/28 03:11:36;;;;;;;5.13;1.80;;;;;;;15.17;100.00;96441.44;5008893;28;20202;-85
2022/05/28 03:14:04;;;;;;;2.13;1.57;;;;;;;15.21;100.00;96448.03;5006140;28;20203;-85
2022/05/28 03:16:31;;;;;;;2.70;1.83;;;;;;;15.17;100.00;96452.31;5007746;28;20239;-85
2022/05/28 03:18:59;;;;;;;3.83;1.50;;;;;;;15.20;100.00;96446.38;5024336;28;20215;-84
2022/05/28 03:21:27;;;;;;;1.70;1.40;;;;;;;15.18;100.00;96453.97;5014036;28;20230;-84
2022/05/28 03:23:54;;;;;;;3.67;1.80;;;;;;;15.15;100.00;96447.94;5008998;28;20318;-84
2022/05/28 03:26:24;;;;;;;3.33;1.80;;;;;;;15.14;100.00;96456.41;5007760;28;20273;-85
2022/05/28 03:28:53;;;;;;;1.90;1.70;;;;;;;15.15;100.00;96456.13;5006586;28;20306;-85
2022/05/28 03:31:20;;;;;;;1.83;1.67;;;;;;;15.03;100.00;96458.19;5000930;28;20344;-85
2022/05/28 03:33:47;;;;;;;3.53;1.90;;;;;;;14.91;100.00;96445.78;5006640;28;20269;-85
2022/05/28 03:36:14;;;;;;;3.00;1.90;;;;;;;14.89;100.00;96445.22;5020395;28;20258;-85
2022/05/28 03:38:43;;;;;;;1.90;1.70;;;;;;;14.76;100.00;96441.84;5005639;28;20198;-84
2022/05/28 03:41:11;;;;;;;3.63;1.70;;;;;;;14.79;100.00;96445.94;5001264;28;20211;-84
2022/05/28 03:43:38;;;;;;;1.70;1.60;;;;;;;14.69;100.00;96445.81;4997751;28;20251;-84
2022/05/28 03:46:06;;;;;;;2.00;1.80;;;;;;;14.65;100.00;96447.38;5010621;28;20211;-85
2022/05/28 03:48:34;;;;;;;2.17;1.90;;;;;;;14.59;100.00;96434.81;5006415;28;20233;-85
2022/05/28 03:51:01;;;;;;;3.00;1.93;;;;;;;14.57;100.00;96443.22;5006216;28;20238;-85
2022/05/28 03:53:28;;;;;;;3.17;2.10;;;;;;;14.51;100.00;96449.69;5005594;28;20214;-85
2022/05/28 03:55:58;;;;;;;4.10;2.00;;;;;;;14.54;100.00;96448.34;5005457;28;20318;-85
2022/05/28 03:58:25;;;;;;;2.17;1.90;;;;;;;14.53;100.00;96438.56;5021960;28;20258;-84
2022/05/28 04:00:53;;;;;;;4.93;2.07;;;;;;;14.52;100.00;96440.44;5021408;28;20221;-85
2022/05/28 04:03:20;;;;;;;4.03;1.90;;;;;;;14.58;100.00;96444.03;5008212;28;20206;-84
2022/05/28 04:05:47;;;;;;;3.57;1.97;;;;;;;14.59;100.00;96442.97;5007892;28;20287;-85
2022/05/28 04:08:14;;;;;;;6.17;2.03;;;;;;;14.54;100.00;96445.63;5002065;28;20280;-85
2022/05/28 04:10:41;;;;;;;2.23;1.87;;;;;;;14.64;100.00;96445.75;5009134;28;20203;-84
2022/05/28 04:13:10;;;;;;;2.43;1.70;;;;;;;14.69;100.00;96446.66;5018368;28;20204;-85
2022/05/28 04:15:37;;;;;;;1.80;1.70;;;;;;;14.73;100.00;96447.75;5001034;28;20231;-85
2022/05/28 04:18:05;;;;;;;2.23;1.80;;;;;;;14.87;100.00;96453.66;5005836;28;20214;-84
2022/05/28 04:20:32;;;;;;;4.43;1.93;;;;;;;14.91;100.00;96452.03;5003031;28;20350;-84
2022/05/28 04:22:59;;;;;;;2.67;1.77;;;;;;;14.99;100.00;96457.03;5011029;28;20288;-84
2022/05/28 04:25:26;;;;;;;2.87;1.80;;;;;;;14.77;100.00;96454.34;5003445;28;20231;-85
2022/05/28 04:27:54;;;;;;;2.87;1.90;;;;;;;14.80;100.00;96454.94;5023824;28;20329;-84
2022/05/28 04:30:22;;;;;;;2.33;1.70;;;;;;;14.83;100.00;96447.06;5005758;28;20216;-85
2022/05/28 04:32:49;;;;;;;3.77;1.80;;;;;;;14.83;100.00;96451.69;4998998;28;20211;-84
2022/05/28 04:35:17;;;;;;;2.73;1.80;;;;;;;14.93;100.00;96457.25;5007568;28;20195;-85
2022/05/28 04:37:44;;;;;;;3.00;1.57;;;;;;;14.89;100.00;96451.47;5023351;28;20215;-85
2022/05/28 04:40:12;;;;;;;3.13;1.90;;;;;;;14.90;100.00;96461.28;5005434;28;20294;-85
2022/05/28 04:42:39;;;;;;;2.33;1.53;;;;;;;14.89;100.00;96467.78;5018787;28;20211;-84
2022/05/28 04:45:07;;;;;;;3.03;1.80;;;;;;;14.95;100.00;96464.06;5003891;28;20370;-85
2022/05/28 04:47:36;;;;;;;2.27;1.90;;;;;;;14.89;100.00;96458.81;5004652;28;20238;-85
2022/05/28 04:50:04;;;;;;;1.73;1.60;;;;;;;14.80;100.00;96457.66;5009145;28;20305;-85
2022/05/28 04:52:32;;;;;;;2.00;1.80;;;;;;;14.89;100.00;96461.53;4992235;28;20218;-84
2022/05/28 04:54:59;;;;;;;3.67;1.70;;;;;;;14.88;100.00;96468.06;5006235;28;20195;-84
2022/05/28 04:57:26;;;;;;;2.27;1.60;;;;;;;14.88;100.00;96468.88;5028698;28;20256;-85
2022/05/28 04:59:53;;;;;;;3.93;1.90;;;;;;;14.90;100.00;96465.88;5005709;28;20242;-85
2022/05/28 05:02:20;;;;;;;2.03;1.70;;;;;;;14.92;100.00;96467.28;5007183;28;20261;-84
2022/05/28 05:04:48;;;;;;;2.80;1.83;;;;;;;14.95;100.00;96468.69;5005926;28;20250;-85
2022/05/28 05:07:16;;;;;;;3.07;2.03;;;;;;;14.96;100.00;96473.06;5004700;28;20316;-85
2022/05/28 05:09:43;;;;;;;3.20;1.70;;;;;;;15.01;100.00;96478.53;5028349;28;20203;-84
2022/05/28 05:12:10;;;;;;;3.00;1.77;;;;;;;15.03;100.00;96469.06;5009638;28;20207;-84
2022/05/28 05:14:37;;;;;;;3.20;1.90;;;;;;;15.09;100.00;96473.47;5004420;28;20203;-84
2022/05/28 05:17:05;;;;;;;3.27;1.70;;;;;;;15.04;100.00;96473.41;5009314;28;20231;-84
2022/05/28 05:19:32;;;;;;;2.80;1.60;;;;;;;15.07;100.00;96472.06;5006916;28;20301;-84
2022/05/28 05:22:01;;;;;;;5.20;1.90;;;;;;;15.12;100.00;96485.75;5029501;28;20305;-83
2022/05/28 05:24:28;;;;;;;2.30;2.10;;;;;;;15.11;100.00;96474.03;5014539;28;20242;-84
2022/05/28 05:26:55;;;;;;;2.10;1.90;;;;;;;15.05;100.00;96469.63;5009102;28;20207;-84
2022/05/28 05:29:22;;;;;;;2.10;1.90;;;;;;;15.09;100.00;96476.19;5007470;28;20211;-84
2022/05/28 05:31:49;;;;;;;3.33;1.63;;;;;;;14.98;100.00;96474.41;5005243;28;20234;-84
2022/05/28 05:34:16;;;;;;;2.87;1.90;;;;;;;15.08;100.00;96482.69;5007453;28;20531;-85
2022/05/28 05:36:43;;;;;;;2.20;1.70;;;;;;;15.02;100.00;96472.03;5004307;28;20214;-85
2022/05/28 05:39:12;;;;;;;2.00;1.70;;;;;;;14.95;100.00;96480.38;5007180;28;20222;-84
2022/05/28 05:41:39;;;;;;;2.13;1.93;;;;;;;15.03;100.00;96473.66;5007530;28;20210;-84
2022/05/28 05:44:06;;;;;;;4.43;1.90;;;;;;;15.00;100.00;96480.44;5008858;28;20234;-85
2022/05/28 05:46:34;;;;;;;3.00;1.70;;;;;;;15.06;100.00;96473.13;5006908;28;20214;-85
2022/05/28 05:49:01;;;;;;;2.40;1.90;;;;;;;15.02;100.00;96475.56;4998322;28;20231;-85
2022/05/28 05:51:28;;;;;;;2.47;2.00;;;;;;;14.97;100.00;96480.13;5004177;28;20258;-85
2022/05/28 05:53:56;;;;;;;2.73;2.10;;;;;;;14.95;100.00;96471.41;5007033;28;20203;-84
2022/05/28 05:56:24;;;;;;;3.23;2.00;;;;;;;14.92;100.00;96467.28;5014530;28;20198;-84
2022/05/28 05:58:54;;;;;;;3.60;2.10;;;;;;;14.99;100.00;96478.78;5003343;28;20211;-85
2022/05/28 06:01:23;;;;;;;3.20;1.73;;;;;;;14.88;100.00;96473.50;5004140;28;20214;-84
2022/05/28 06:03:51;;;;;;;3.20;2.13;;;;;;;14.88;100.00;96473.50;4999449;28;20226;-84
2022/05/28 06:06:19;;;;;;;5.93;2.17;;;;;;;14.81;100.00;96473.66;4993491;28;20212;-85
2022/05/28 06:08:46;;;;;;;4.00;2.10;;;;;;;14.78;100.00;96474.19;4998774;28;20365;-85
2022/05/28 06:11:14;;;;;;;2.20;2.00;;;;;;;14.82;100.00;96474.50;5009679;28;20203;-85
2022/05/28 06:13:43;;;;;;;4.77;2.00;;;;;;;14.80;100.00;96474.75;4999007;28;20290;-83
2022/05/28 06:16:11;;;;;;;2.50;2.00;;;;;;;14.76;100.00;96473.63;5021586;28;20250;-85
2022/05/28 06:18:38;;;;;;;4.07;2.00;;;;;;;14.77;100.00;96469.84;5020945;28;20198;-85
2022/05/28 06:21:06;;;;;;;2.70;2.10;;;;;;;14.75;100.00;96467.38;5005123;28;20226;-84
2022/05/28 06:23:33;;;;;;;4.80;2.10;;;;;;;14.72;100.00;96472.47;4996157;28;20270;-85
2022/05/28 06:26:02;;;;;;;2.50;2.03;;;;;;;14.79;100.00;96475.84;5001169;28;20206;-85
2022/05/28 06:28:29;;;;;;;13.43;2.57;;;;;;;14.72;100.00;96472.47;4989005;28;20218;-86
2022/05/28 06:31:01;;;;;;;2.50;2.17;;;;;;;14.69;100.00;96470.28;5001126;28;20218;-85
2022/05/28 06:33:29;;;;;;;2.40;2.10;;;;;;;14.79;100.00;96472.31;5024803;28;20210;-83
2022/05/28 06:35:57;;;;;;;2.87;2.10;;;;;;;14.85;100.00;96480.25;5000677;28;20238;-85
2022/05/28 06:38:24;;;;;;;2.80;2.13;;;;;;;14.90;100.00;96485.75;5017434;28;20297;-84
2022/05/28 06:40:52;;;;;;;3.87;2.40;;;;;;;14.78;100.00;96479.63;5001399;28;20217;-85
2022/05/28 06:43:20;;;;;;;4.10;2.60;;;;;;;14.79;100.00;96494.06;5004406;28;20258;-85
2022/05/28 06:45:47;;;;;;;3.37;2.03;;;;;;;14.73;100.00;96490.44;5007933;28;20280;-85
2022/05/28 06:48:16;;;;;;;3.33;2.30;;;;;;;14.79;100.00;96484.00;5002089;28;20227;-86
2022/05/28 06:53:29;;;;;;;3.33;2.10;;;;;;;14.76;100.00;96485.31;5005085;28;20210;-84
2022/05/28 06:55:58;;;;;;;4.47;1.90;;;;;;;14.82;100.00;96483.47;5006434;28;20294;-85
2022/05/28 06:58:25;;;;;;;3.40;2.40;;;;;;;14.72;100.00;96495.03;5020978;28;20206;-84
2022/05/28 07:00:53;;;;;;;4.27;2.33;;;;;;;14.75;100.00;96491.81;5007978;28;20211;-86
2022/05/28 07:03:24;;;;;;;5.97;2.80;;;;;;;14.82;100.00;96493.53;5007963;28;20211;-85
2022/05/28 07:05:51;;;;;;;7.73;2.47;;;;;;;14.86;100.00;96486.53;5005946;28;20207;-86
2022/05/28 07:08:19;;;;;;;2.80;2.10;;;;;;;14.82;100.00;96483.47;5018407;28;20605;-86
2022/05/28 07:10:49;;;;;;;3.37;2.30;;;;;;;14.85;100.00;96504.72;4992188;28;20199;-85
2022/05/28 07:13:18;;;;;;;3.93;2.10;;;;;;;14.86;100.00;96498.22;5006706;28;20207;-86
2022/05/28 07:15:45;;;;;;;2.83;1.80;;;;;;;14.84;100.00;96503.06;4997544;28;20223;-85
2022/05/28 07:18:13;;;;;;;2.77;2.27;;;;;;;14.78;100.00;96498.66;5008947;28;20210;-86
2022/05/28 07:20:42;;;;;;;3.70;2.30;;;;;;;14.68;100.00;96502.06;5008145;28;20302;-85
2022/05/28 07:23:12;;;;;;;4.53;2.27;;;;;;;14.65;100.00;96494.41;5004680;28;20207;-86
2022/05/28 07:25:40;;;;;;;3.53;2.27;;;;;;;14.62;100.00;96499.53;5006652;28;20262;-86
2022/05/28 07:30:49;;;;;;;3.43;2.00;;;;;;;14.60;100.00;96493.53;4998997;28;20250;-86
2022/05/28 07:33:16;;;;;;;4.13;2.20;;;;;;;14.57;100.00;96486.69;5001767;28;20203;-86
2022/05/28 07:35:45;;;;;;;4.03;2.10;;;;;;;14.67;96.77;96486.00;5007133;28;20211;-87
2022/05/28 07:38:12;;;;;;;4.73;2.20;;;;;;;14.69;97.75;96487.41;4997080;28;20203;-86
2022/05/28 07:40:40;;;;;;;3.57;2.10;;;;;;;14.78;98.05;96485.06;5020238;28;20313;-86
2022/05/28 07:43:09;;;;;;;5.47;2.00;;;;;;;14.78;97.45;96485.06;4997299;28;20203;-87
2022/05/28 07:45:39;;;;;;;5.03;2.50;;;;;;;14.82;97.58;96483.47;5024161;28;20221;-85
2022/05/28 07:48:42;;;;;;;6.30;2.20;;;;;;;15.04;97.23;96481.56;5118657;27;20596;-85
2022/05/28 07:51:10;;;;;;;4.63;2.60;;;;;;;15.04;96.35;96487.03;5090471;28;20311;-83
2022/05/28 07:53:37;;;;;;;5.23;2.07;;;;;;;15.13;96.36;96484.66;5094256;28;20245;-84
2022/05/28 07:56:06;;;;;;;3.53;2.20;;;;;;;15.20;95.29;96481.75;5096319;28;20212;-83
2022/05/28 07:58:33;;;;;;;3.03;2.17;;;;;;;15.30;94.51;96479.13;5098304;28;20307;-84
2022/05/28 08:01:00;;;;;;;5.73;2.20;;;;;;;15.23;95.28;96468.44;5092277;28;20252;-85
2022/05/28 08:03:27;;;;;;;4.53;2.30;;;;;;;15.33;96.39;96467.72;5100232;28;20212;-82
2022/05/28 08:05:58;;;;;;;3.13;2.30;;;;;;;15.36;95.68;96467.22;5093993;28;20203;-84
2022/05/28 08:08:27;;;;;;;4.97;2.67;;;;;;;15.50;94.23;96460.25;5091059;28;20247;-83
2022/05/28 08:10:55;;;;;;;3.80;2.30;;;;;;;15.55;94.83;96456.81;5093535;28;20213;-85
2022/05/28 08:13:25;;;;;;;5.17;2.67;;;;;;;15.63;93.84;96473.47;5097995;28;20196;-84
2022/05/28 08:15:54;;;;;;;3.77;2.40;;;;;;;15.62;94.72;96469.13;5091772;28;20253;-82
2022/05/28 08:18:24;;;;;;;3.27;2.43;;;;;;;15.55;94.75;96473.97;5096191;28;20208;-83
2022/05/28 08:23:50;;;;;;;2.80;2.20;;;;;;;15.73;95.42;96472.75;5052135;28;20233;-83
2022/05/28 08:26:19;;;;;;;3.93;2.40;;;;;;;15.77;95.45;96468.41;5087967;28;20212;-82
2022/05/28 08:28:48;;;;;;;5.60;2.30;;;;;;;15.76;95.10;96466.78;5099827;28;20209;-83
2022/05/28 08:31:15;;;;;;;2.67;2.20;;;;;;;15.75;94.56;96474.13;5099450;28;20231;-85
2022/05/28 08:33:43;;;;;;;3.97;2.47;;;;;;;15.68;94.98;96478.13;5098868;28;20197;-83
2022/05/28 08:36:11;;;;;;;6.10;5.50;;;;;;;15.65;96.07;96475.97;5098998;28;20228;-83
2022/05/28 08:38:39;;;;;;;2.90;2.50;;;;;;;15.65;97.62;96473.22;5099786;28;20249;-83
2022/05/28 08:41:13;;;;;;;4.17;2.40;;;;;;;15.61;96.58;96464.75;5089779;28;20224;-83
2022/05/28 08:43:45;;;;;;;5.60;2.33;;;;;;;15.64;96.35;96460.69;5097025;28;20200;-83
2022/05/28 08:46:15;;;;;;;2.27;2.07;;;;;;;15.83;93.52;96476.34;5099434;28;20217;-84
2022/05/28 08:48:46;;;;;;;4.87;2.30;;;;;;;15.85;93.48;96465.22;5091988;28;20317;-82
2022/05/28 08:51:23;;;;;;;2.10;1.80;;;;;;;15.72;94.10;96454.78;5096473;28;20291;-82
2022/05/28 08:53:56;;;;;;;1.60;1.50;;;;;;;15.69;93.21;96468.91;5092039;28;20208;-83
2022/05/28 08:56:27;;;;;;;2.67;2.00;;;;;;;15.55;93.68;96467.69;5091190;28;20216;-83
2022/05/28 08:59:04;;;;;;;4.20;1.80;;;;;;;15.40;93.93;96460.97;5091316;28;20205;-82
2022/05/28 09:01:36;;;;;;;3.93;2.00;;;;;;;15.50;94.86;96468.41;5083612;28;20205;-84
2022/05/28 09:04:06;;;;;;;2.57;1.60;;;;;;;15.45;93.45;96469.22;5087563;28;20216;-83
2022/05/28 09:06:38;;;;;;;3.13;1.90;;;;;;;15.31;95.37;96465.25;5072271;28;20282;-83
2022/05/28 09:09:09;;;;;;;2.70;1.60;;;;;;;15.27;94.63;96468.75;5083941;28;20209;-81
2022/05/28 09:11:40;;;;;;;4.33;1.90;;;;;;;15.20;94.93;96452.63;5086055;28;20270;-83
2022/05/28 09:14:20;;;;;;;3.03;1.90;;;;;;;15.17;95.20;96468.63;5083037;28;20205;-83
2022/05/28 09:16:50;;;;;;;2.63;1.70;;;;;;;15.20;93.26;96462.69;5080905;28;20224;-81
2022/05/28 09:19:20;;;;;;;2.50;1.90;;;;;;;15.20;94.37;96462.69;5077104;28;20204;-82
2022/05/28 09:21:48;;;;;;;5.00;2.10;;;;;;;15.25;94.44;96463.56;5077896;28;20224;-82
2022/05/28 09:40:35;;;;;;;2.53;2.17;;;;;;;15.58;91.12;96453.53;4979921;27;141721;-81
2022/05/28 09:43:29;;;;;;;4.67;2.10;;;;;;;15.56;89.85;96456.56;5032903;28;20227;-82
2022/05/28 09:46:08;;;;;;;2.73;1.90;;;;;;;15.65;89.58;96449.53;5024452;28;20325;-82
2022/05/28 09:48:35;;;;;;;2.37;2.00;;;;;;;15.55;87.60;96444.03;5043746;28;20305;-81
2022/05/28 09:51:03;;;;;;;2.90;2.20;;;;;;;15.54;89.05;96436.09;5039782;28;20260;-82
2022/05/28 09:56:28;;;;;;;3.63;2.40;;;;;;;15.70;89.60;96440.59;5035606;28;20214;-81
2022/05/28 09:58:55;;;;;;;3.53;2.67;;;;;;;15.81;89.06;96426.81;5040095;28;20280;-82
2022/05/28 10:01:24;;;;;;;3.80;2.63;;;;;;;15.89;86.80;96423.59;5033576;28;20297;-82
2022/05/28 10:06:46;;;;;;;3.67;2.57;;;;;;;16.15;86.88;96418.31;5030653;28;20297;-81
2022/05/28 10:09:16;;;;;;;4.90;2.20;;;;;;;16.17;86.26;96429.75;5041652;28;20216;-81
2022/05/28 10:11:53;;;;;;;5.03;2.57;;;;;;;16.22;85.53;96422.44;5037407;28;20202;-81
2022/05/28 10:14:21;;;;;;;5.83;3.03;;;;;;;16.21;85.14;96419.97;5036808;28;20297;-81
2022/05/28 10:16:49;;;;;;;6.03;2.27;;;;;;;16.29;83.53;96414.03;5050957;28;20222;-83
2022/05/28 10:19:20;;;;;;;5.90;2.30;;;;;;;16.40;81.54;96407.53;5053817;28;20226;-82
2022/05/28 10:21:52;;;;;;;3.30;2.63;;;;;;;16.41;82.61;96402.91;5058498;28;20205;-81
2022/05/28 10:24:22;;;;;;;3.63;3.00;;;;;;;16.51;80.59;96398.31;5050720;28;20210;-82
2022/05/28 10:26:54;;;;;;;3.43;2.57;;;;;;;16.61;79.00;96398.38;5051249;28;20292;-82
2022/05/28 10:29:27;;;;;;;4.30;2.70;;;;;;;16.70;78.86;96393.22;5051394;28;20229;-82
2022/05/28 10:31:57;;;;;;;3.07;2.60;;;;;;;16.76;78.29;96397.59;5048688;28;20210;-82
2022/05/28 10:34:32;;;;;;;4.87;2.03;;;;;;;16.83;77.29;96389.19;5050722;28;20203;-82
2022/05/28 10:37:12;;;;;;;2.63;2.20;;;;;;;16.81;75.95;96399.53;5046420;28;20206;-82
2022/05/28 10:39:40;;;;;;;2.93;2.33;;;;;;;16.85;75.79;96379.63;5045037;28;20242;-82
2022/05/28 10:42:11;;;;;;;3.23;2.20;;;;;;;16.95;75.42;96381.56;5048687;28;20221;-82
2022/05/28 10:44:39;;;;;;;2.33;2.13;;;;;;;16.96;75.91;96383.22;5054294;28;20243;-81
2022/05/28 10:47:21;;;;;;;4.47;2.67;;;;;;;17.01;76.53;96375.06;5049655;28;20214;-85
2022/05/28 10:49:58;;;;;;;2.83;2.33;;;;;;;17.15;75.14;96372.63;5055646;28;20198;-83
2022/05/28 10:52:36;;;;;;;3.33;2.20;;;;;;;17.20;71.43;96361.69;5037665;28;20224;-81
2022/05/28 10:55:07;;;;;;;3.93;2.87;;;;;;;17.27;73.90;96357.59;5042897;28;20233;-82
2022/05/28 10:58:00;;;;;;;3.10;2.60;;;;;;;17.37;74.03;96362.25;5035562;28;20206;-83
2022/05/28 11:00:34;;;;;;;3.33;2.30;;;;;;;17.45;72.48;96364.44;5038459;28;20305;-82
2022/05/28 11:03:24;;;;;;;6.10;3.43;;;;;;;17.36;72.89;96361.44;5039831;28;20209;-83
2022/05/28 11:06:26;;;;;;;4.57;3.10;;;;;;;17.43;70.53;96349.44;5041641;28;20209;-82
2022/05/28 11:09:01;;;;;;;3.70;2.47;;;;;;;17.43;73.03;96347.53;5050130;28;20224;-81
2022/05/28 11:11:43;;;;;;;3.90;2.10;;;;;;;17.44;72.41;96351.88;5041064;28;20210;-82
2022/05/28 11:14:36;;;;;;;5.07;2.30;;;;;;;17.43;72.91;96343.97;5043189;28;20215;-82
2022/05/28 11:17:22;;;;;;;2.90;2.60;;;;;;;17.40;72.99;96346.16;5038755;28;20250;-82
2022/05/28 11:20:06;;;;;;;4.47;2.30;;;;;;;17.47;72.83;96342.31;5063467;28;20303;-82
2022/05/28 11:22:55;;;;;;;2.37;2.10;;;;;;;17.53;70.79;96325.66;5050221;28;20233;-82
2022/05/28 11:25:28;;;;;;;3.23;2.33;;;;;;;17.73;70.62;96330.31;5043090;28;20220;-82
2022/05/28 11:28:11;;;;;;;6.50;2.67;;;;;;;17.87;68.19;96320.44;5031512;28;20215;-82
2022/05/28 11:30:42;;;;;;;3.07;2.10;;;;;;;17.92;69.25;96320.44;5038090;28;20209;-84
2022/05/28 11:33:17;;;;;;;3.30;2.23;;;;;;;18.05;66.65;96314.38;5034238;28;20263;-82
2022/05/28 11:35:47;;;;;;;4.33;2.50;;;;;;;18.12;65.54;96314.09;5032493;28;20202;-82
2022/05/28 11:38:21;;;;;;;2.50;2.20;;;;;;;18.22;66.66;96302.28;5035058;28;20207;-81
2022/05/28 11:41:01;;;;;;;3.87;2.40;;;;;;;18.23;65.07;96304.75;5039232;28;20286;-81
2022/05/28 11:43:32;;;;;;;2.57;2.37;;;;;;;18.17;65.32;96300.41;5041825;28;20229;-82
2022/05/28 11:46:05;;;;;;;2.80;2.50;;;;;;;18.18;64.97;96301.25;5037406;28;20214;-82
2022/05/28 11:51:33;;;;;;;4.90;2.40;;;;;;;18.19;65.09;96295.50;5029089;28;20210;-82
2022/05/28 11:54:06;;;;;;;3.63;2.20;;;;;;;18.27;64.45;96285.91;5029941;28;20270;-82
2022/05/28 11:56:33;;;;;;;3.30;2.23;;;;;;;18.37;64.84;96283.91;5052687;28;20214;-82
2022/05/28 11:59:06;;;;;;;4.77;2.03;;;;;;;18.26;64.52;96285.06;5034262;28;20307;-83
2022/05/28 12:01:44;;;;;;;2.73;2.07;;;;;;;18.39;63.15;96286.38;5036047;28;20265;-84
2022/05/28 12:04:11;;;;;;;3.70;2.27;;;;;;;18.40;62.85;96271.59;5039851;28;20260;-85
2022/05/28 12:06:42;;;;;;;3.80;2.27;;;;;;;18.35;62.98;96261.53;4969790;28;202429;-83
2022/05/28 12:09:23;;;;;;;3.80;2.00;;;;;;;18.44;64.38;96250.81;5034791;28;20217;-82
2022/05/28 12:12:00;;;;;;;2.50;2.13;;;;;;;18.58;63.60;96257.31;5042840;28;20198;-85
2022/05/28 12:14:31;;;;;;;2.93;2.50;;;;;;;18.49;64.00;96246.13;5039714;28;20220;-82
2022/05/28 12:17:06;;;;;;;3.07;2.00;;;;;;;18.52;62.12;96255.69;5038672;28;20238;-81
2022/05/28 12:19:34;;;;;;;3.20;2.37;;;;;;;18.64;61.86;96245.22;5028394;28;20229;-81